Middlefield, Ohio
Current Conditions -  °F | °C
As of 1:38 PM on Saturday 25 Oct 2014 (Local Time) from KPOV Reporting Station
Overcast Overcast  
Wind Chill: 65°   Ceiling: 3500
Heat Index: 65°   Visibility: 10mi
Dew Point: 48°   Wind: 13mph
Humidity: 53%   Direction: 240°WSW
Pressure: 29.8"   Gusts: 20mph
Location:  41.46°N, 81.07°W
Report Text: KPOV 251738Z AUTO 24011G17KT 10SM OVC035 19/09 A2980 RMK AO2 T01850087
Loading
Personal Weather Stations






























Interactive Weather Map
Tropical Storm Tracking
New forecast layout! Learn more

10-Day Weather Forecast

Advertisements
Track Severe Weather on mobile